createdAt,value
2017-11-06T00:00:01.006Z,2.40
2017-11-06T00:02:27.409Z,2.27
2017-11-06T00:04:53.786Z,1.90
2017-11-06T00:07:20.173Z,2.00
2017-11-06T00:09:46.569Z,1.70
2017-11-06T00:12:12.975Z,1.80
2017-11-06T00:14:39.368Z,1.43
2017-11-06T00:17:06.023Z,1.50
2017-11-06T00:19:32.423Z,1.57
2017-11-06T00:21:59.562Z,1.70
2017-11-06T00:24:26.706Z,1.83
2017-11-06T00:26:53.828Z,1.60
2017-11-06T00:29:20.239Z,1.50
2017-11-06T00:31:46.616Z,5.13
2017-11-06T00:34:12.998Z,2.60
2017-11-06T00:36:39.463Z,1.70
2017-11-06T00:39:06.620Z,2.90
2017-11-06T00:41:34.498Z,2.40
2017-11-06T00:44:01.631Z,1.73
2017-11-06T00:46:28.008Z,1.67
2017-11-06T00:48:54.384Z,1.57
2017-11-06T00:51:20.761Z,3.47
2017-11-06T00:53:47.896Z,2.07
2017-11-06T00:56:14.274Z,1.70
2017-11-06T00:58:40.660Z,2.00
2017-11-06T01:01:07.840Z,1.50
2017-11-06T01:03:34.206Z,1.93
2017-11-06T01:06:00.591Z,2.27
2017-11-06T01:08:27.692Z,2.13
2017-11-06T01:10:54.073Z,2.03
2017-11-06T01:13:20.457Z,1.97
2017-11-06T01:15:48.344Z,2.20
2017-11-06T01:18:16.196Z,2.17
2017-11-06T01:20:44.076Z,2.30
2017-11-06T01:23:10.467Z,2.67
2017-11-06T01:25:36.871Z,2.97
2017-11-06T01:28:03.474Z,3.63
2017-11-06T01:30:29.890Z,3.30
2017-11-06T01:32:56.270Z,3.00
2017-11-06T01:35:23.414Z,4.63
2017-11-06T01:37:50.601Z,6.97
2017-11-06T01:40:17.032Z,6.77
2017-11-06T01:42:43.511Z,4.53
2017-11-06T01:45:09.952Z,6.13
2017-11-06T01:47:36.340Z,7.33
2017-11-06T01:50:02.742Z,6.90
2017-11-06T01:52:29.108Z,6.60
2017-11-06T01:54:55.503Z,6.50
2017-11-06T01:57:22.623Z,8.03
2017-11-06T01:59:49.797Z,10.23
2017-11-06T02:02:16.237Z,10.60
2017-11-06T02:04:42.654Z,13.80
2017-11-06T02:07:09.809Z,10.67
2017-11-06T02:09:36.942Z,10.47
2017-11-06T02:12:04.088Z,13.30
2017-11-06T02:14:31.241Z,10.87
2017-11-06T02:16:58.392Z,13.67
2017-11-06T02:19:24.824Z,11.50
2017-11-06T02:21:51.295Z,13.27
2017-11-06T02:24:17.733Z,10.97
2017-11-06T02:26:44.152Z,13.90
2017-11-06T02:29:10.584Z,14.50
2017-11-06T02:31:37.028Z,17.80
2017-11-06T02:34:03.459Z,15.47
2017-11-06T02:36:29.849Z,16.27
2017-11-06T02:38:57.748Z,15.77
2017-11-06T02:41:24.935Z,15.93
2017-11-06T02:43:51.397Z,11.03
2017-11-06T02:46:17.803Z,20.70
2017-11-06T02:48:44.195Z,13.13
2017-11-06T02:51:10.609Z,16.10
2017-11-06T02:53:37.780Z,17.07
2017-11-06T02:56:04.913Z,13.40
2017-11-06T02:58:32.044Z,14.43
2017-11-06T03:00:58.476Z,20.07
2017-11-06T03:03:26.343Z,15.70
2017-11-06T03:05:54.212Z,15.60
2017-11-06T03:08:21.356Z,16.50
2017-11-06T03:10:47.727Z,14.37
2017-11-06T03:13:14.112Z,14.73
2017-11-06T03:15:41.257Z,17.13
2017-11-06T03:18:07.648Z,15.47
2017-11-06T03:20:34.075Z,18.33
2017-11-06T03:23:00.479Z,13.80
2017-11-06T03:25:26.905Z,15.43
2017-11-06T03:27:54.109Z,17.10
2017-11-06T03:30:20.547Z,18.10
2017-11-06T03:32:46.923Z,15.47
2017-11-06T03:35:14.772Z,16.17
2017-11-06T03:37:41.403Z,13.43
2017-11-06T03:40:07.864Z,13.10
2017-11-06T03:42:35.138Z,15.40
2017-11-06T03:45:01.553Z,19.07
2017-11-06T03:47:28.762Z,15.50
2017-11-06T03:49:55.162Z,22.50
2017-11-06T03:52:21.593Z,22.37
2017-11-06T03:54:47.974Z,13.87
2017-11-06T03:57:14.368Z,21.27
2017-11-06T03:59:40.743Z,18.40
2017-11-06T04:02:07.133Z,26.90
2017-11-06T04:04:33.519Z,26.00
2017-11-06T04:06:59.906Z,21.83
2017-11-06T04:09:26.303Z,14.53
2017-11-06T04:11:53.462Z,16.33
2017-11-06T04:14:19.847Z,14.30
2017-11-06T04:16:46.253Z,10.30
2017-11-06T04:19:12.622Z,10.60
2017-11-06T04:21:40.499Z,15.23
2017-11-06T04:24:06.894Z,10.80
2017-11-06T04:26:33.301Z,10.93
2017-11-06T04:28:59.716Z,11.90
2017-11-06T04:31:26.911Z,9.60
2017-11-06T04:33:53.320Z,10.17
2017-11-06T04:36:19.736Z,13.70
2017-11-06T04:38:46.151Z,12.27
2017-11-06T04:41:12.548Z,10.60
2017-11-06T04:43:38.994Z,14.13
2017-11-06T04:46:06.367Z,10.60
2017-11-06T04:48:33.567Z,14.70
2017-11-06T04:50:59.987Z,9.63
2017-11-06T04:53:26.545Z,11.57
2017-11-06T04:55:52.952Z,11.83
2017-11-06T04:58:19.349Z,10.20
2017-11-06T05:00:46.490Z,11.30
2017-11-06T05:03:12.880Z,9.13
2017-11-06T05:05:39.263Z,11.30
2017-11-06T05:08:06.430Z,12.67
2017-11-06T05:10:33.574Z,9.97
2017-11-06T05:13:00.717Z,13.60
2017-11-06T05:15:27.843Z,17.43
2017-11-06T05:17:54.263Z,9.47
2017-11-06T05:20:20.651Z,14.23
2017-11-06T05:22:47.036Z,10.10
2017-11-06T05:25:13.418Z,9.80
2017-11-06T05:27:39.797Z,10.13
2017-11-06T05:30:06.190Z,12.20
2017-11-06T05:32:32.641Z,10.93
2017-11-06T05:34:59.015Z,12.03
2017-11-06T05:37:25.414Z,12.77
2017-11-06T05:39:51.811Z,17.33
2017-11-06T05:42:18.200Z,9.70
2017-11-06T05:44:44.600Z,10.43
2017-11-06T05:47:11.056Z,11.80
2017-11-06T05:49:38.224Z,10.07
2017-11-06T05:52:04.610Z,10.87
2017-11-06T05:54:30.994Z,15.93
2017-11-06T05:56:57.399Z,9.40
2017-11-06T05:59:23.819Z,11.00
2017-11-06T06:01:50.197Z,10.67
2017-11-06T06:04:17.338Z,9.53
2017-11-06T06:06:44.451Z,9.73
2017-11-06T06:09:11.615Z,12.53
2017-11-06T06:11:38.009Z,8.83
2017-11-06T06:14:04.428Z,7.27
2017-11-06T06:16:30.811Z,7.07
2017-11-06T06:18:57.251Z,9.27
2017-11-06T06:21:24.418Z,11.13
2017-11-06T06:23:50.898Z,9.03
2017-11-06T06:26:17.299Z,14.80
2017-11-06T06:28:44.009Z,12.77
2017-11-06T06:31:10.409Z,14.07
2017-11-06T06:33:36.830Z,11.90
2017-11-06T06:36:03.491Z,18.37
2017-11-06T06:38:29.883Z,17.37
2017-11-06T06:40:56.292Z,9.23
2017-11-06T06:43:22.678Z,15.43
2017-11-06T06:45:49.079Z,14.03
2017-11-06T06:48:15.564Z,14.90
2017-11-06T06:50:42.724Z,13.83
2017-11-06T06:53:09.131Z,11.77
2017-11-06T06:55:35.553Z,14.80
2017-11-06T06:58:01.946Z,13.50
2017-11-06T07:00:29.140Z,12.53
2017-11-06T07:02:55.557Z,9.97
2017-11-06T07:05:21.950Z,10.63
2017-11-06T07:07:48.364Z,9.17
2017-11-06T07:10:16.303Z,7.40
2017-11-06T07:12:42.687Z,5.20
2017-11-06T07:15:09.862Z,4.87
2017-11-06T07:17:36.318Z,6.70
2017-11-06T07:20:02.813Z,5.27
2017-11-06T07:22:30.236Z,4.63
2017-11-06T07:24:56.633Z,7.80
2017-11-06T07:27:23.018Z,4.00
2017-11-06T07:29:49.403Z,4.33
2017-11-06T07:32:15.841Z,3.00
2017-11-06T07:34:42.223Z,4.60
2017-11-06T07:37:09.350Z,3.10
2017-11-06T07:39:35.748Z,2.53
2017-11-06T07:42:02.177Z,5.77
2017-11-06T07:44:28.564Z,4.30
2017-11-06T07:46:54.948Z,4.33
2017-11-06T07:49:21.361Z,2.20
2017-11-06T07:51:47.786Z,2.30
2017-11-06T07:54:14.263Z,1.90
2017-11-06T07:56:40.723Z,2.63
2017-11-06T07:59:07.135Z,3.57
2017-11-06T08:01:33.526Z,2.57
2017-11-06T08:03:59.924Z,2.67
2017-11-06T08:06:26.331Z,2.40
2017-11-06T08:08:52.727Z,2.80
2017-11-06T08:11:19.129Z,2.80
2017-11-06T08:13:46.266Z,4.03
2017-11-06T08:16:12.672Z,4.80
2017-11-06T08:18:39.072Z,2.63
2017-11-06T08:21:05.501Z,2.47
2017-11-06T08:23:31.893Z,2.70
2017-11-06T08:25:59.969Z,2.53
2017-11-06T08:28:27.832Z,2.40
2017-11-06T08:30:54.227Z,3.03
2017-11-06T08:33:20.635Z,4.03
2017-11-06T08:35:47.021Z,2.50
2017-11-06T08:38:14.875Z,3.13
2017-11-06T08:40:41.257Z,3.33
2017-11-06T08:43:07.647Z,3.47
2017-11-06T08:45:34.042Z,2.47
2017-11-06T08:48:00.405Z,2.30
2017-11-06T08:50:26.825Z,3.37
2017-11-06T08:52:53.213Z,2.63
2017-11-06T08:55:20.395Z,4.40
2017-11-06T08:57:46.783Z,2.17
2017-11-06T09:00:13.927Z,2.53
2017-11-06T09:02:41.089Z,4.00
2017-11-06T09:05:08.227Z,2.40
2017-11-06T09:07:35.402Z,2.50
2017-11-06T09:10:01.865Z,3.00
2017-11-06T09:12:28.306Z,3.20
2017-11-06T09:14:54.734Z,2.80
2017-11-06T09:17:21.179Z,3.30
2017-11-06T09:19:47.600Z,2.70
2017-11-06T09:22:14.031Z,2.90
2017-11-06T09:24:40.457Z,3.40
2017-11-06T09:27:06.884Z,2.97
2017-11-06T09:29:33.387Z,3.20
2017-11-06T09:31:59.833Z,3.10
2017-11-06T09:34:26.222Z,3.50
2017-11-06T09:36:52.666Z,5.10
2017-11-06T09:39:19.866Z,3.50
2017-11-06T09:41:46.248Z,4.90
2017-11-06T09:44:14.140Z,4.17
2017-11-06T09:46:41.283Z,3.90
2017-11-06T09:49:08.471Z,5.00
2017-11-06T09:51:34.904Z,6.40
2017-11-06T09:54:01.340Z,5.10
2017-11-06T09:56:27.836Z,4.33
2017-11-06T09:58:54.240Z,6.20
2017-11-06T10:01:22.147Z,5.03
2017-11-06T10:03:48.581Z,5.73
2017-11-06T10:06:15.010Z,4.10
2017-11-06T10:08:41.437Z,4.13
2017-11-06T10:11:07.884Z,4.97
2017-11-06T10:13:34.349Z,3.97
2017-11-06T10:16:00.738Z,7.30
2017-11-06T10:18:27.865Z,6.37
2017-11-06T10:20:54.255Z,6.70
2017-11-06T10:23:20.681Z,5.13
2017-11-06T10:25:47.090Z,8.37
2017-11-06T10:28:13.496Z,4.33
2017-11-06T10:30:40.830Z,5.00
2017-11-06T10:33:07.285Z,4.77
2017-11-06T10:35:34.561Z,5.10
2017-11-06T10:38:01.055Z,5.43
2017-11-06T10:40:27.540Z,5.20
2017-11-06T10:42:54.011Z,7.40
2017-11-06T10:45:20.496Z,5.83
2017-11-06T10:47:46.933Z,6.00
2017-11-06T10:50:13.405Z,8.50
2017-11-06T10:52:39.854Z,5.27
2017-11-06T10:55:06.305Z,6.00
2017-11-06T10:57:33.489Z,5.57
2017-11-06T11:00:00.125Z,6.60
2017-11-06T11:02:26.587Z,5.70
2017-11-06T11:04:53.108Z,7.40
2017-11-06T11:07:19.574Z,6.00
2017-11-06T11:09:46.042Z,5.67
2017-11-06T11:12:13.225Z,7.80
2017-11-06T11:14:39.742Z,8.40
2017-11-06T11:17:06.161Z,6.43
2017-11-06T11:19:33.346Z,8.30
2017-11-06T11:21:59.750Z,7.63
2017-11-06T11:24:26.931Z,5.57
2017-11-06T11:26:53.351Z,6.30
2017-11-06T11:29:19.794Z,5.53
2017-11-06T11:31:46.156Z,8.97
2017-11-06T11:34:12.574Z,6.20
2017-11-06T11:36:38.996Z,6.47
2017-11-06T11:39:05.406Z,4.87
2017-11-06T11:41:31.854Z,8.40
2017-11-06T11:43:58.251Z,5.43
2017-11-06T11:46:25.393Z,6.73
2017-11-06T11:48:52.542Z,4.80
2017-11-06T11:51:19.689Z,4.57
2017-11-06T11:53:46.068Z,4.07
2017-11-06T11:56:12.465Z,2.67
2017-11-06T11:58:39.602Z,4.50
2017-11-06T12:01:06.759Z,4.77
2017-11-06T12:03:33.888Z,3.17
2017-11-06T12:06:00.372Z,5.13
2017-11-06T12:08:26.831Z,4.93
2017-11-06T12:10:54.739Z,4.20
2017-11-06T12:13:21.929Z,6.40
2017-11-06T12:15:48.343Z,5.37
2017-11-06T12:18:15.452Z,5.30
2017-11-06T12:20:41.897Z,5.73
2017-11-06T12:23:08.297Z,5.43
2017-11-06T12:25:34.725Z,4.93
2017-11-06T12:28:01.157Z,7.10
2017-11-06T12:30:27.605Z,4.43
2017-11-06T12:32:54.602Z,4.50
2017-11-06T12:35:21.038Z,5.53
2017-11-06T12:37:47.428Z,4.47
2017-11-06T12:40:13.844Z,4.37
2017-11-06T12:42:40.263Z,8.33
2017-11-06T12:45:06.669Z,4.77
2017-11-06T12:47:33.039Z,4.00
2017-11-06T12:49:59.457Z,3.90
2017-11-06T12:52:25.902Z,6.33
2017-11-06T12:54:52.374Z,4.60
2017-11-06T12:57:19.535Z,5.50
2017-11-06T12:59:45.979Z,4.60
2017-11-06T13:02:12.417Z,5.20
2017-11-06T13:04:38.852Z,4.43
2017-11-06T13:07:05.283Z,5.00
2017-11-06T13:09:31.706Z,4.33
2017-11-06T13:11:58.137Z,4.90
2017-11-06T13:14:25.355Z,4.10
2017-11-06T13:16:52.517Z,4.10
2017-11-06T13:19:19.704Z,4.80
2017-11-06T13:21:46.146Z,6.73
2017-11-06T13:24:12.571Z,6.00
2017-11-06T13:26:39.038Z,4.60
2017-11-06T13:29:05.462Z,6.27
2017-11-06T13:31:31.873Z,5.50
2017-11-06T13:33:58.313Z,6.43
2017-11-06T13:36:24.828Z,5.73
2017-11-06T13:38:51.327Z,4.57
2017-11-06T13:41:18.743Z,5.10
2017-11-06T13:43:45.116Z,4.63
2017-11-06T13:46:12.263Z,4.30
2017-11-06T13:48:38.709Z,3.93
2017-11-06T13:51:05.898Z,4.33
2017-11-06T13:53:32.298Z,4.10
2017-11-06T13:55:59.422Z,4.47
2017-11-06T13:58:27.357Z,4.10
2017-11-06T14:00:53.771Z,3.90
2017-11-06T14:03:20.199Z,4.10
2017-11-06T14:05:46.591Z,4.77
2017-11-06T14:08:14.481Z,4.20
2017-11-06T14:10:41.648Z,5.20
2017-11-06T14:13:08.286Z,4.80
2017-11-06T14:15:34.851Z,4.40
2017-11-06T14:18:01.257Z,4.03
2017-11-06T14:20:27.637Z,4.87
2017-11-06T14:22:54.044Z,7.60
2017-11-06T14:25:20.440Z,5.23
2017-11-06T14:27:47.599Z,5.13
2017-11-06T14:30:14.009Z,5.37
2017-11-06T14:32:41.186Z,6.00
2017-11-06T14:35:07.581Z,6.60
2017-11-06T14:37:34.747Z,6.27
2017-11-06T14:40:01.144Z,13.33
2017-11-06T14:42:27.597Z,5.80
2017-11-06T14:44:54.157Z,5.33
2017-11-06T14:47:21.294Z,6.27
2017-11-06T14:49:47.723Z,6.93
2017-11-06T14:52:14.882Z,7.70
2017-11-06T14:54:42.095Z,7.40
2017-11-06T14:57:08.507Z,7.67
2017-11-06T14:59:34.912Z,7.17
2017-11-06T15:02:01.347Z,8.47
2017-11-06T15:04:27.771Z,8.30
2017-11-06T15:06:54.927Z,6.40
2017-11-06T15:09:22.104Z,10.00
2017-11-06T15:11:48.525Z,9.73
2017-11-06T15:14:14.972Z,9.40
2017-11-06T15:16:41.396Z,15.10
2017-11-06T15:19:07.970Z,11.77
2017-11-06T15:21:35.883Z,9.70
2017-11-06T15:24:03.027Z,13.30
2017-11-06T15:26:29.464Z,13.20
2017-11-06T15:28:55.898Z,12.83
2017-11-06T15:31:22.337Z,12.27
2017-11-06T15:33:48.783Z,13.03
2017-11-06T15:36:15.210Z,16.07
2017-11-06T15:38:41.587Z,13.70
2017-11-06T15:41:08.006Z,12.67
2017-11-06T15:43:34.415Z,17.60
2017-11-06T15:46:00.827Z,16.67
2017-11-06T15:48:28.004Z,14.13
2017-11-06T15:50:54.641Z,13.87
2017-11-06T15:53:21.047Z,14.63
2017-11-06T15:55:47.439Z,16.00
2017-11-06T15:58:13.888Z,14.57
2017-11-06T16:00:41.034Z,16.83
2017-11-06T16:03:07.451Z,18.50
2017-11-06T16:05:33.856Z,20.13
2017-11-06T16:08:00.283Z,16.10
2017-11-06T16:10:26.691Z,16.47
2017-11-06T16:12:53.148Z,17.70
2017-11-06T16:15:19.569Z,14.60
2017-11-06T16:17:45.957Z,16.60
2017-11-06T16:20:13.834Z,16.10
2017-11-06T16:22:41.008Z,14.80
2017-11-06T16:25:07.406Z,14.30
2017-11-06T16:27:33.802Z,20.20
2017-11-06T16:30:00.210Z,16.70
2017-11-06T16:32:26.594Z,11.70
2017-11-06T16:34:54.458Z,16.43
2017-11-06T16:37:20.855Z,15.87
2017-11-06T21:47:06.985Z,117.00
2017-11-06T21:49:33.489Z,95.60
2017-11-06T21:54:22.796Z,83.53
2017-11-06T21:56:49.223Z,94.03
2017-11-06T21:59:15.655Z,81.70
2017-11-06T22:01:42.102Z,71.50
2017-11-06T22:04:08.525Z,71.73
2017-11-06T22:06:34.930Z,66.20
2017-11-06T22:09:02.100Z,70.50
2017-11-06T22:11:28.486Z,70.27
2017-11-06T22:13:54.879Z,71.40
2017-11-06T22:16:21.279Z,71.20
2017-11-06T22:18:48.407Z,63.37
2017-11-06T22:21:14.794Z,64.10
2017-11-06T22:23:41.186Z,66.10
2017-11-06T22:26:08.328Z,53.13
2017-11-06T22:28:34.703Z,69.03
2017-11-06T22:31:01.102Z,64.30
2017-11-06T22:33:28.226Z,61.50
2017-11-06T22:35:54.610Z,65.07
2017-11-06T22:38:21.007Z,67.90
2017-11-06T22:40:48.214Z,68.27
2017-11-06T22:43:14.604Z,60.40
2017-11-06T22:45:41.740Z,54.27
2017-11-06T22:48:08.877Z,53.67
2017-11-06T22:50:35.267Z,64.03
2017-11-06T22:53:01.683Z,59.87
2017-11-06T22:55:28.075Z,60.90
2017-11-06T22:57:55.224Z,57.60
2017-11-06T23:00:21.686Z,52.80
2017-11-06T23:02:48.089Z,60.67
2017-11-06T23:05:14.512Z,52.77
2017-11-06T23:07:41.016Z,61.20
2017-11-06T23:10:07.420Z,55.47
2017-11-06T23:12:33.888Z,55.43
2017-11-06T23:15:00.323Z,57.23
2017-11-06T23:17:26.719Z,55.23
2017-11-06T23:19:53.125Z,53.43
2017-11-06T23:22:19.495Z,54.83
2017-11-06T23:24:45.913Z,55.93
2017-11-06T23:27:12.300Z,49.20
2017-11-06T23:29:38.679Z,52.37
2017-11-06T23:32:05.076Z,48.20
2017-11-06T23:34:32.957Z,48.80
2017-11-06T23:37:00.111Z,46.13
2017-11-06T23:39:27.227Z,42.67
2017-11-06T23:41:53.634Z,45.30
2017-11-06T23:44:20.031Z,43.20
2017-11-06T23:46:47.166Z,45.80
2017-11-06T23:49:13.593Z,46.13
2017-11-06T23:51:41.507Z,45.27
2017-11-06T23:54:17.114Z,43.23
2017-11-06T23:56:43.497Z,37.97
2017-11-06T23:59:09.883Z,39.43
